Time;durP1;ratioP1;P1;durP2;ratioP2;P2;SDS_P1;SDS_P2;PMS_P1;PMS_P2;Temp;Humidity;BMP_temperature;BMP_pressure;BME280_temperature;BME280_humidity;BME280_pressure;Samples;Min_cycle;Max_cycle;Signal;HPM_P1;HPM_P2
2022/01/25 00:26:34;;;;;;;8.27;2.50;;;4.60;99.90;;;;;;4938852;28;20062;-66
2022/01/25 00:31:32;;;;;;;6.53;2.57;;;4.60;99.90;;;;;;4938008;28;20075;-70
2022/01/25 00:33:59;;;;;;;15.43;2.72;;;4.50;99.90;;;;;;4939467;28;20361;-67
2022/01/25 00:36:27;;;;;;;14.75;3.15;;;4.50;99.90;;;;;;4939973;28;20107;-69
2022/01/25 00:38:55;;;;;;;9.77;2.35;;;4.50;99.90;;;;;;4941015;28;20067;-68
2022/01/25 00:41:23;;;;;;;8.20;3.33;;;4.50;99.90;;;;;;4941434;28;20109;-67
2022/01/25 00:43:51;;;;;;;10.20;3.40;;;4.50;99.90;;;;;;4938941;28;20141;-68
2022/01/25 00:46:21;;;;;;;7.10;2.45;;;4.50;99.90;;;;;;4937597;28;20055;-64
2022/01/25 00:48:52;;;;;;;12.47;5.90;;;4.50;99.90;;;;;;4937622;28;21546;-66
2022/01/25 00:54:04;;;;;;;8.50;2.80;;;4.50;99.90;;;;;;4936596;28;21093;-65
2022/01/25 00:56:36;;;;;;;10.27;4.13;;;4.50;99.90;;;;;;4940303;28;20055;-64
2022/01/25 00:59:07;;;;;;;7.65;2.17;;;4.50;99.90;;;;;;4938754;28;20573;-71
2022/01/25 01:01:36;;;;;;;7.13;2.45;;;4.50;99.90;;;;;;4936952;28;20056;-65
2022/01/25 01:04:04;;;;;;;6.60;3.13;;;4.60;99.90;;;;;;4938104;28;20048;-68
2022/01/25 01:06:31;;;;;;;8.43;2.42;;;4.50;99.90;;;;;;4939134;28;21447;-65
2022/01/25 01:08:58;;;;;;;12.27;3.30;;;4.50;99.90;;;;;;4938258;28;20051;-65
2022/01/25 01:11:36;;;;;;;7.17;3.30;;;4.50;99.90;;;;;;4935769;28;20106;-68
2022/01/25 01:17:08;;;;;;;10.52;2.25;;;4.50;99.90;;;;;;4936798;28;20055;-71
2022/01/25 01:30:55;;;;;;;7.95;2.85;;;4.40;99.90;;;;;;4937988;28;20102;-67
2022/01/25 01:34:16;;;;;;;8.73;2.40;;;4.40;99.90;;;;;;4937331;28;20055;-67
2022/01/25 01:44:28;;;;;;;8.15;2.63;;;4.40;99.90;;;;;;4878097;28;20763;-80
2022/01/25 01:47:21;;;;;;;4.85;2.40;;;4.40;99.90;;;;;;2123139;28;10024443;-64
2022/01/25 01:49:48;;;;;;;15.27;3.95;;;4.40;99.90;;;;;;3573847;28;10001055;-67
2022/01/25 01:52:15;;;;;;;17.40;3.50;;;4.40;99.90;;;;;;4937309;28;20580;-66
2022/01/25 01:54:42;;;;;;;5.07;2.17;;;4.40;99.90;;;;;;4938152;28;20083;-67
2022/01/25 01:57:09;;;;;;;11.50;3.55;;;4.40;99.90;;;;;;4937387;28;20151;-66
2022/01/25 01:59:36;;;;;;;9.45;4.18;;;4.40;99.90;;;;;;4936036;28;20059;-66
2022/01/25 02:02:03;;;;;;;11.20;3.30;;;4.50;99.90;;;;;;4939036;28;20054;-65
2022/01/25 02:04:31;;;;;;;10.60;2.78;;;4.50;99.90;;;;;;4937506;28;20059;-66
2022/01/25 02:06:58;;;;;;;15.45;3.70;;;4.50;99.90;;;;;;4936319;28;20425;-67
2022/01/25 02:09:25;;;;;;;7.20;2.35;;;4.50;99.90;;;;;;4935711;28;20054;-67
2022/01/25 02:11:52;;;;;;;9.73;3.10;;;4.50;99.90;;;;;;4935929;28;20059;-67
2022/01/25 02:14:19;;;;;;;8.13;2.80;;;4.50;99.90;;;;;;4936634;28;20105;-66
2022/01/25 02:24:49;;;;;;;13.13;3.25;;;4.50;99.90;;;;;;4937616;28;20118;-65
2022/01/25 02:27:17;;;;;;;12.13;3.35;;;4.40;99.90;;;;;;4937121;28;20106;-68
2022/01/25 02:29:44;;;;;;;11.02;3.63;;;4.40;99.90;;;;;;4935660;28;20047;-69
2022/01/25 02:32:13;;;;;;;7.30;2.28;;;4.40;99.90;;;;;;4937790;28;20051;-69
2022/01/25 02:34:40;;;;;;;14.13;3.40;;;4.30;99.90;;;;;;4937424;28;20055;-70
2022/01/25 02:37:10;;;;;;;10.73;2.88;;;4.30;99.90;;;;;;4935473;28;20134;-73
2022/01/25 02:39:38;;;;;;;10.90;3.10;;;4.30;99.90;;;;;;4935190;28;20055;-68
2022/01/25 02:42:06;;;;;;;15.05;4.10;;;4.40;99.90;;;;;;4935755;28;20142;-76
2022/01/25 02:44:35;;;;;;;10.32;3.20;;;4.40;99.90;;;;;;4936981;28;20051;-70
2022/01/25 02:49:32;;;;;;;7.63;2.83;;;4.40;99.90;;;;;;4935414;28;20084;-66
2022/01/25 02:52:02;;;;;;;8.43;2.75;;;4.40;99.90;;;;;;4939377;28;20087;-70
2022/01/25 02:54:30;;;;;;;12.45;2.88;;;4.40;99.90;;;;;;4936828;28;20509;-71
2022/01/25 02:56:57;;;;;;;8.85;2.60;;;4.40;99.90;;;;;;4940713;28;20854;-65
2022/01/25 02:59:24;;;;;;;12.38;4.20;;;4.40;99.90;;;;;;4941484;28;20186;-67
2022/01/25 03:01:51;;;;;;;11.88;3.30;;;4.40;99.90;;;;;;4938955;28;20075;-69
2022/01/25 03:04:21;;;;;;;8.32;3.60;;;4.30;99.90;;;;;;4939659;28;20799;-68
2022/01/25 03:06:48;;;;;;;15.63;2.70;;;4.30;99.90;;;;;;4941366;28;20071;-71
2022/01/25 03:09:15;;;;;;;12.55;2.70;;;4.30;99.90;;;;;;4940047;28;20072;-70
2022/01/25 03:11:46;;;;;;;9.45;3.25;;;4.20;99.90;;;;;;4939152;28;20059;-68
2022/01/25 03:14:13;;;;;;;27.10;3.42;;;4.20;99.90;;;;;;4942075;28;20130;-65
2022/01/25 03:17:05;;;;;;;8.23;3.97;;;4.20;99.90;;;;;;4939013;28;20542;-68
2022/01/25 03:22:18;;;;;;;5.82;2.88;;;4.10;99.90;;;;;;4941194;28;20114;-65
2022/01/25 03:24:46;;;;;;;9.73;3.22;;;4.10;99.90;;;;;;4939279;28;20071;-70
2022/01/25 03:27:13;;;;;;;11.60;3.15;;;4.10;99.90;;;;;;4939725;28;20186;-71
2022/01/25 03:29:40;;;;;;;6.90;3.17;;;4.00;99.90;;;;;;4936620;28;20138;-68
2022/01/25 03:32:07;;;;;;;10.30;3.50;;;4.00;99.90;;;;;;4939518;28;20159;-68
2022/01/25 03:34:35;;;;;;;7.55;2.55;;;4.00;99.90;;;;;;4939077;28;20118;-67
2022/01/25 03:37:02;;;;;;;9.20;3.20;;;4.00;99.90;;;;;;4941255;28;20055;-64
2022/01/25 03:39:29;;;;;;;6.20;2.60;;;4.00;99.90;;;;;;4938314;28;20514;-66
2022/01/25 03:41:56;;;;;;;13.43;3.60;;;4.00;99.90;;;;;;4939315;28;20782;-65
2022/01/25 03:44:23;;;;;;;14.40;3.38;;;3.90;99.90;;;;;;4939191;28;20150;-66
2022/01/25 03:52:03;;;;;;;8.18;3.63;;;3.90;99.90;;;;;;4939917;28;20161;-65
2022/01/25 03:54:31;;;;;;;10.30;3.80;;;3.90;99.90;;;;;;4939984;28;20074;-65
2022/01/25 03:56:58;;;;;;;5.13;3.03;;;3.90;99.90;;;;;;4942839;28;20131;-72
2022/01/25 03:59:25;;;;;;;13.85;4.47;;;3.90;99.90;;;;;;4937344;28;20043;-74
2022/01/25 04:01:52;;;;;;;17.05;3.20;;;4.00;99.90;;;;;;4941412;28;20150;-71
2022/01/25 04:04:23;;;;;;;4.32;3.03;;;4.00;99.90;;;;;;4939665;28;20512;-72
2022/01/25 04:06:52;;;;;;;12.68;3.22;;;4.00;99.90;;;;;;4940053;28;20174;-64
2022/01/25 04:09:21;;;;;;;7.13;3.97;;;4.00;99.90;;;;;;4940374;28;20052;-67
2022/01/25 04:11:48;;;;;;;13.48;3.08;;;4.00;99.90;;;;;;4938654;28;20469;-69
2022/01/25 04:14:15;;;;;;;10.52;3.00;;;4.00;99.90;;;;;;4943554;28;20261;-64
2022/01/25 04:19:21;;;;;;;14.30;4.22;;;4.10;99.90;;;;;;4939716;28;20482;-67
2022/01/25 04:27:08;;;;;;;21.23;3.92;;;4.10;99.90;;;;;;4940067;28;20071;-67
2022/01/25 04:29:35;;;;;;;7.40;4.25;;;4.10;99.90;;;;;;4938354;28;20556;-70
2022/01/25 04:32:05;;;;;;;9.10;3.67;;;4.10;99.90;;;;;;4944054;28;20050;-65
2022/01/25 04:53:30;;;;;;;12.65;3.28;;;4.10;99.90;;;;;;4938731;28;20059;-69
2022/01/25 04:56:05;;;;;;;15.18;4.13;;;4.10;99.90;;;;;;4938664;28;20086;-64
2022/01/25 04:58:41;;;;;;;11.77;4.45;;;4.10;99.90;;;;;;4939907;28;20058;-70
2022/01/25 05:01:08;;;;;;;12.73;3.15;;;4.10;99.90;;;;;;4939985;28;20062;-71
2022/01/25 05:03:56;;;;;;;9.80;3.47;;;4.10;99.90;;;;;;4953050;28;20058;-67
2022/01/25 05:06:24;;;;;;;13.82;3.50;;;4.10;99.90;;;;;;4940862;28;20057;-69
2022/01/25 05:08:54;;;;;;;13.82;3.67;;;4.20;99.90;;;;;;4938893;28;20134;-68
2022/01/25 05:11:28;;;;;;;;;;;4.10;99.90;;;;;;4939887;28;20082;-73
2022/01/25 05:16:34;;;;;;;11.52;3.45;;;4.10;99.90;;;;;;4938210;28;20056;-65
2022/01/25 05:24:27;;;;;;;18.52;3.72;;;4.10;99.90;;;;;;4938089;28;20549;-67
2022/01/25 05:26:54;;;;;;;13.30;3.67;;;4.10;99.90;;;;;;4939119;28;20137;-65
2022/01/25 05:29:21;;;;;;;12.95;4.20;;;4.00;99.90;;;;;;4964939;28;20133;-66
2022/01/25 05:31:48;;;;;;;12.63;4.38;;;4.00;99.90;;;;;;4936798;28;20089;-67
2022/01/25 05:34:15;;;;;;;10.80;3.35;;;3.90;99.90;;;;;;4937559;28;20040;-70
2022/01/25 05:36:43;;;;;;;19.80;4.88;;;3.90;99.90;;;;;;4939750;28;20938;-67
2022/01/25 05:39:14;;;;;;;8.70;3.67;;;3.90;99.90;;;;;;4937905;28;20539;-68
2022/01/25 05:41:42;;;;;;;15.82;4.72;;;3.80;99.90;;;;;;4937311;28;20678;-75
2022/01/25 05:47:04;;;;;;;11.30;3.28;;;3.80;99.90;;;;;;4938026;28;20048;-66
2022/01/25 05:49:36;;;;;;;10.90;2.90;;;3.80;99.90;;;;;;4937887;28;20056;-72
2022/01/25 05:52:05;;;;;;;17.30;5.20;;;3.80;99.90;;;;;;4936403;28;20121;-69
2022/01/25 05:54:33;;;;;;;15.63;5.35;;;3.70;99.90;;;;;;4937079;28;20620;-67
2022/01/25 05:57:00;;;;;;;15.30;4.05;;;3.70;99.90;;;;;;4940044;28;21322;-70
2022/01/25 05:59:27;;;;;;;12.43;4.03;;;3.80;99.90;;;;;;4938817;28;20119;-72
2022/01/25 06:01:54;;;;;;;11.32;5.03;;;3.80;99.90;;;;;;4938240;28;20524;-67
2022/01/25 06:04:22;;;;;;;16.83;4.68;;;3.80;99.90;;;;;;4938860;28;20074;-67
2022/01/25 06:06:50;;;;;;;9.93;3.88;;;3.80;99.90;;;;;;4938216;28;20069;-74
2022/01/25 06:09:18;;;;;;;14.48;5.90;;;3.80;99.90;;;;;;4938941;28;20790;-64
2022/01/25 06:11:45;;;;;;;11.63;4.13;;;3.80;99.90;;;;;;4937940;28;20138;-68
2022/01/25 06:14:12;;;;;;;11.40;5.72;;;3.80;99.90;;;;;;4936113;28;20522;-70
2022/01/25 06:16:38;;;;;;;19.55;4.03;;;3.80;99.90;;;;;;4938774;28;20087;-68
2022/01/25 06:19:05;;;;;;;16.27;6.88;;;3.80;99.90;;;;;;4937286;28;20143;-67
2022/01/25 06:21:35;;;;;;;13.45;3.92;;;3.80;99.90;;;;;;4935304;28;20478;-71
2022/01/25 06:24:02;;;;;;;13.30;3.47;;;3.80;99.90;;;;;;4937549;28;20162;-67
2022/01/25 06:26:29;;;;;;;27.27;7.85;;;3.80;99.90;;;;;;4936923;28;20060;-68
2022/01/25 06:28:56;;;;;;;18.02;5.18;;;3.80;99.90;;;;;;4937861;28;20182;-68
2022/01/25 06:31:23;;;;;;;12.80;4.05;;;3.70;99.90;;;;;;4936081;28;20701;-71
2022/01/25 06:33:50;;;;;;;14.80;4.22;;;3.70;99.90;;;;;;4933864;28;20055;-64
2022/01/25 06:36:18;;;;;;;24.40;7.13;;;3.70;99.90;;;;;;4937108;28;20437;-69
2022/01/25 06:38:45;;;;;;;15.32;4.88;;;3.70;99.90;;;;;;4937937;28;20134;-72
2022/01/25 06:41:14;;;;;;;20.50;4.88;;;3.70;99.90;;;;;;4937862;28;20097;-69
2022/01/25 06:43:41;;;;;;;20.27;4.90;;;3.70;99.90;;;;;;4934770;28;20134;-67
2022/01/25 06:46:08;;;;;;;25.20;5.68;;;3.60;99.90;;;;;;4937035;28;20055;-68
2022/01/25 06:48:35;;;;;;;12.75;3.63;;;3.60;99.90;;;;;;4935180;28;20066;-66
2022/01/25 06:51:02;;;;;;;15.35;3.83;;;3.60;99.90;;;;;;4936760;28;20085;-71
2022/01/25 06:53:29;;;;;;;17.52;5.78;;;3.60;99.90;;;;;;4933758;28;20106;-69
2022/01/25 06:55:56;;;;;;;19.75;3.78;;;3.60;99.90;;;;;;4936280;28;20534;-70
2022/01/25 06:58:23;;;;;;;17.33;5.63;;;3.60;99.90;;;;;;4934045;28;20047;-74
2022/01/25 07:00:50;;;;;;;20.40;5.80;;;3.60;99.90;;;;;;4935333;28;20138;-68
2022/01/25 07:03:17;;;;;;;10.75;3.92;;;3.60;99.90;;;;;;4936199;28;20150;-69
2022/01/25 07:05:44;;;;;;;15.95;4.60;;;3.60;99.90;;;;;;4935296;28;20059;-73
2022/01/25 07:08:11;;;;;;;17.15;4.20;;;3.50;99.90;;;;;;4935190;28;20047;-65
2022/01/25 07:10:38;;;;;;;19.42;4.75;;;3.50;99.90;;;;;;4937224;28;20151;-64
2022/01/25 07:13:05;;;;;;;15.77;5.68;;;3.50;99.90;;;;;;4935540;28;20051;-66
2022/01/25 07:15:33;;;;;;;14.63;5.03;;;3.50;99.90;;;;;;4933802;28;20670;-69
2022/01/25 07:17:59;;;;;;;11.75;4.95;;;3.50;99.90;;;;;;4936496;28;20055;-69
2022/01/25 07:20:26;;;;;;;18.85;5.30;;;3.60;99.90;;;;;;4934344;28;20130;-67
2022/01/25 07:22:54;;;;;;;15.85;5.45;;;3.60;99.90;;;;;;4935613;28;20055;-65
2022/01/25 07:25:21;;;;;;;12.90;4.57;;;3.50;99.90;;;;;;4935862;28;20726;-69
2022/01/25 07:27:48;;;;;;;23.35;3.78;;;3.50;99.90;;;;;;4933946;28;20051;-68
2022/01/25 07:30:15;;;;;;;14.95;4.97;;;3.50;99.90;;;;;;4935973;28;20135;-68
2022/01/25 07:32:42;;;;;;;15.38;4.50;;;3.50;99.90;;;;;;4936533;28;20059;-64
2022/01/25 07:35:11;;;;;;;17.25;4.35;;;3.50;99.90;;;;;;4936313;28;20119;-67
2022/01/25 07:37:41;;;;;;;21.83;4.57;;;3.50;99.90;;;;;;4949500;28;20051;-66
2022/01/25 07:40:09;;;;;;;13.82;4.00;;;3.50;99.90;;;;;;4934648;28;20040;-66
2022/01/25 07:42:50;;;;;;;13.57;4.35;;;3.50;99.90;;;;;;4937916;28;20523;-66
2022/01/25 07:45:24;;;;;;;12.88;3.53;;;3.50;99.90;;;;;;4939292;28;20063;-74
2022/01/25 07:47:54;;;;;;;15.13;4.78;;;3.50;99.90;;;;;;4939165;28;20059;-66
2022/01/25 07:50:21;;;;;;;22.88;7.38;;;3.50;99.90;;;;;;4939050;28;20058;-69
2022/01/25 07:52:48;;;;;;;11.73;3.28;;;3.50;99.90;;;;;;4939420;28;21069;-68
2022/01/25 07:55:14;;;;;;;11.73;4.40;;;3.50;99.90;;;;;;4937643;28;20130;-69
2022/01/25 07:57:41;;;;;;;12.50;3.42;;;3.50;99.90;;;;;;4939213;28;20581;-70
2022/01/25 08:00:09;;;;;;;12.20;4.70;;;3.50;99.90;;;;;;4938630;28;20047;-71
2022/01/25 08:02:41;;;;;;;13.40;3.80;;;3.50;99.90;;;;;;4940920;28;20136;-66
2022/01/25 08:05:31;;;;;;;16.80;4.05;;;3.50;99.90;;;;;;4935625;28;20055;-66
2022/01/25 08:08:18;;;;;;;23.92;3.92;;;3.50;99.90;;;;;;4881878;29;20059;-66
2022/01/25 08:10:51;;;;;;;11.85;3.95;;;3.40;99.90;;;;;;4880339;29;20075;-65
2022/01/25 08:13:32;;;;;;;16.75;3.53;;;3.40;99.90;;;;;;4878790;29;20143;-65
2022/01/25 08:16:05;;;;;;;13.13;3.78;;;3.30;99.90;;;;;;4885514;29;20048;-74
2022/01/25 08:18:55;;;;;;;19.52;5.07;;;3.30;99.90;;;;;;4882434;29;20049;-66
2022/01/25 08:21:26;;;;;;;14.23;5.03;;;3.40;99.90;;;;;;4879823;29;20143;-69
2022/01/25 08:23:56;;;;;;;13.75;3.05;;;3.30;99.90;;;;;;4881952;29;20124;-66
2022/01/25 08:26:38;;;;;;;13.63;3.15;;;3.30;99.90;;;;;;4880749;29;20056;-67
2022/01/25 08:29:18;;;;;;;11.25;3.60;;;3.30;99.90;;;;;;4881307;29;20053;-65
2022/01/25 08:31:52;;;;;;;8.07;2.70;;;3.30;99.90;;;;;;4881226;29;20061;-70
2022/01/25 08:34:45;;;;;;;8.23;2.72;;;3.30;99.90;;;;;;4874791;29;20196;-70
2022/01/25 08:37:54;;;;;;;12.73;3.87;;;3.20;99.90;;;;;;4867868;29;20135;-66
2022/01/25 08:40:21;;;;;;;6.32;2.97;;;3.20;99.90;;;;;;4879528;29;20053;-70
2022/01/25 08:43:08;;;;;;;15.10;2.95;;;3.20;99.90;;;;;;4880718;29;20543;-71
2022/01/25 08:45:53;;;;;;;8.02;4.38;;;3.20;99.90;;;;;;4920991;28;20112;-67
2022/01/25 08:48:23;;;;;;;7.35;3.58;;;3.20;99.90;;;;;;4939221;28;20055;-71
2022/01/25 08:51:04;;;;;;;15.32;5.45;;;3.10;99.90;;;;;;4936834;28;20046;-67
2022/01/25 08:53:48;;;;;;;12.45;4.57;;;3.10;99.90;;;;;;4910410;29;20112;-64
2022/01/25 08:56:29;;;;;;;14.68;3.63;;;3.10;99.90;;;;;;4910971;29;20146;-65
2022/01/25 08:59:30;;;;;;;11.60;3.13;;;3.20;99.90;;;;;;4844542;29;20087;-68
2022/01/25 09:01:56;;;;;;;8.30;3.13;;;3.20;99.90;;;;;;4845425;29;20292;-68
2022/01/25 09:04:24;;;;;;;10.52;2.60;;;3.20;99.90;;;;;;4874633;29;20163;-69
2022/01/25 09:06:51;;;;;;;11.98;2.75;;;3.20;99.90;;;;;;4911215;29;20799;-65
2022/01/25 09:09:31;;;;;;;10.25;2.90;;;3.10;99.90;;;;;;3867255;28;10002051;-79
2022/01/25 09:11:58;;;;;;;9.77;2.13;;;3.10;99.90;;;;;;2367118;29;10002017;-71
2022/01/25 09:14:25;;;;;;;7.30;3.40;;;3.20;99.90;;;;;;4912960;29;20493;-68
2022/01/25 09:16:52;;;;;;;10.32;2.58;;;3.20;99.90;;;;;;4911179;29;20091;-69
2022/01/25 09:19:19;;;;;;;9.48;2.55;;;3.10;99.90;;;;;;4934163;28;20195;-64
2022/01/25 09:21:46;;;;;;;9.00;2.70;;;3.10;99.90;;;;;;4935735;28;20055;-69
2022/01/25 09:24:13;;;;;;;4.68;2.15;;;3.10;99.90;;;;;;4936378;28;20139;-68
2022/01/25 09:26:40;;;;;;;7.70;2.60;;;3.10;99.90;;;;;;4937140;28;20057;-65
2022/01/25 09:29:07;;;;;;;10.65;3.13;;;3.20;99.90;;;;;;4937144;28;20511;-67
2022/01/25 09:31:34;;;;;;;25.23;3.58;;;3.20;99.90;;;;;;4935977;28;20059;-66
2022/01/25 09:34:01;;;;;;;7.88;2.95;;;3.20;99.90;;;;;;4938424;28;20146;-65
2022/01/25 09:36:29;;;;;;;16.15;3.75;;;3.20;99.90;;;;;;4937223;28;20457;-71
2022/01/25 09:38:56;;;;;;;10.20;4.25;;;3.20;99.90;;;;;;4938958;28;20058;-70
2022/01/25 09:41:24;;;;;;;15.90;3.38;;;3.20;99.90;;;;;;4937237;28;20075;-69
2022/01/25 09:43:51;;;;;;;6.97;2.30;;;3.20;99.90;;;;;;4936993;28;20048;-68
2022/01/25 09:46:18;;;;;;;6.63;2.25;;;3.20;99.90;;;;;;4935558;28;20139;-77
2022/01/25 09:48:45;;;;;;;5.25;2.38;;;3.20;99.90;;;;;;4937169;28;20078;-65
2022/01/25 09:51:12;;;;;;;9.32;2.92;;;3.20;99.90;;;;;;4936257;28;20090;-65
2022/01/25 09:53:40;;;;;;;8.85;2.35;;;3.20;99.90;;;;;;4933718;28;20083;-68
2022/01/25 09:56:07;;;;;;;7.22;3.10;;;3.20;99.90;;;;;;4937167;28;20890;-68
2022/01/25 09:58:36;;;;;;;4.25;1.83;;;3.20;99.90;;;;;;4937506;28;20693;-69
2022/01/25 10:01:05;;;;;;;9.55;2.65;;;3.30;99.90;;;;;;4936633;28;20051;-67
2022/01/25 10:03:38;;;;;;;8.52;3.58;;;3.20;99.90;;;;;;4936142;28;20501;-68
2022/01/25 10:06:17;;;;;;;6.55;1.85;;;3.30;99.90;;;;;;4935331;28;20165;-72
2022/01/25 10:08:45;;;;;;;4.20;1.52;;;3.30;99.90;;;;;;4935493;28;20125;-66
2022/01/25 10:11:14;;;;;;;7.53;2.13;;;3.30;99.90;;;;;;4935708;28;20505;-76
2022/01/25 10:13:43;;;;;;;5.60;1.83;;;3.30;99.90;;;;;;4935172;28;20071;-72
2022/01/25 10:16:14;;;;;;;2.08;1.85;;;3.30;99.90;;;;;;4936133;28;21155;-65
2022/01/25 10:18:50;;;;;;;12.07;3.35;;;3.40;99.90;;;;;;4936518;28;20051;-67
2022/01/25 10:21:17;;;;;;;4.63;1.30;;;3.40;99.90;;;;;;4935956;28;20704;-71
2022/01/25 10:24:11;;;;;;;2.80;1.13;;;3.40;99.90;;;;;;4953223;28;20739;-67
2022/01/25 10:26:52;;;;;;;6.85;1.95;;;3.40;99.90;;;;;;4935647;28;20072;-67
2022/01/25 10:29:23;;;;;;;12.15;1.58;;;3.50;99.90;;;;;;4935442;28;20075;-65
2022/01/25 10:31:59;;;;;;;4.80;1.70;;;3.50;99.90;;;;;;4940680;28;20536;-62
2022/01/25 10:34:33;;;;;;;2.95;1.30;;;3.50;99.90;;;;;;4937434;28;20055;-66
2022/01/25 10:37:07;;;;;;;5.25;2.15;;;3.60;99.90;;;;;;4937996;28;20160;-71
2022/01/25 10:39:36;;;;;;;9.20;3.05;;;3.60;99.90;;;;;;4936450;28;20047;-68
2022/01/25 10:42:19;;;;;;;6.28;1.52;;;3.60;99.90;;;;;;4939125;28;20568;-65
2022/01/25 10:45:16;;;;;;;9.13;1.67;;;3.60;99.90;;;;;;4938422;28;20051;-70
2022/01/25 10:47:52;;;;;;;8.73;2.00;;;3.70;99.90;;;;;;4935602;28;20075;-67
2022/01/25 10:50:35;;;;;;;5.45;1.83;;;3.70;99.90;;;;;;4936877;28;20521;-65
2022/01/25 10:53:07;;;;;;;5.70;1.48;;;3.70;99.90;;;;;;4938691;28;21019;-64
2022/01/25 10:55:45;;;;;;;2.33;1.58;;;3.70;99.90;;;;;;4936433;28;20051;-66
2022/01/25 10:58:13;;;;;;;8.68;1.60;;;3.70;99.90;;;;;;4936242;28;20094;-65
2022/01/25 11:00:44;;;;;;;5.57;1.45;;;3.70;99.90;;;;;;4936405;28;20059;-69
2022/01/25 11:03:29;;;;;;;4.28;1.33;;;3.60;99.90;;;;;;4937968;28;20051;-66
2022/01/25 11:06:07;;;;;;;5.18;1.40;;;3.70;99.90;;;;;;4934458;28;20139;-67
2022/01/25 11:08:36;;;;;;;2.97;1.17;;;3.70;99.90;;;;;;4936481;28;20039;-71
2022/01/25 11:11:07;;;;;;;7.43;2.45;;;3.60;99.90;;;;;;4936832;28;20110;-70
2022/01/25 11:13:39;;;;;;;;;;;3.70;99.90;;;;;;4935353;28;20086;-80
2022/01/25 11:16:09;;;;;;;4.88;1.08;;;3.70;99.90;;;;;;4934711;28;20006;-65
2022/01/25 11:18:37;;;;;;;7.00;1.73;;;3.60;99.90;;;;;;4939331;28;21108;-68
2022/01/25 11:21:10;;;;;;;2.22;0.82;;;3.70;99.90;;;;;;4939265;28;20039;-67
2022/01/25 11:23:40;;;;;;;8.07;2.40;;;3.70;99.90;;;;;;4937554;28;20583;-66
2022/01/25 11:26:11;;;;;;;5.15;1.30;;;3.70;99.90;;;;;;4940605;28;20059;-64
2022/01/25 11:28:40;;;;;;;10.95;1.30;;;3.70;99.90;;;;;;4938191;28;20473;-64
2022/01/25 11:31:11;;;;;;;5.88;1.45;;;3.70;99.90;;;;;;4938852;28;20051;-67
2022/01/25 11:33:45;;;;;;;4.47;1.33;;;3.70;99.90;;;;;;4937451;28;20047;-64
2022/01/25 11:36:13;;;;;;;5.60;1.08;;;3.70;99.90;;;;;;4939881;28;20102;-70
2022/01/25 11:38:41;;;;;;;3.88;1.63;;;3.70;99.90;;;;;;4938936;28;20150;-65
2022/01/25 11:41:12;;;;;;;9.65;1.88;;;3.70;99.90;;;;;;4938106;28;20101;-73
2022/01/25 11:43:42;;;;;;;1.95;1.20;;;3.70;99.90;;;;;;4938898;28;20095;-67
2022/01/25 11:46:09;;;;;;;;;;;3.70;99.90;;;;;;4940308;28;20061;-67
2022/01/25 11:48:43;;;;;;;5.50;1.00;;;3.70;99.90;;;;;;4940441;28;19930;-71
2022/01/25 11:51:18;;;;;;;3.47;0.90;;;3.60;99.90;;;;;;4939638;28;20106;-69
2022/01/25 11:53:48;;;;;;;5.50;1.60;;;3.60;99.90;;;;;;4939736;28;21410;-67
2022/01/25 11:56:16;;;;;;;3.53;1.70;;;3.60;99.90;;;;;;4939788;28;20075;-64
2022/01/25 11:58:53;;;;;;;3.88;1.42;;;3.60;99.90;;;;;;4940642;28;20321;-66
2022/01/25 12:01:24;;;;;;;10.95;1.70;;;3.60;99.90;;;;;;4938726;28;20509;-67
2022/01/25 12:04:04;;;;;;;5.20;1.70;;;3.60;99.90;;;;;;4938193;28;20055;-66
2022/01/25 12:06:59;;;;;;;13.30;2.03;;;3.60;99.90;;;;;;4940759;28;20078;-67
2022/01/25 12:09:49;;;;;;;5.25;1.50;;;3.60;99.90;;;;;;4936877;28;20848;-68
2022/01/25 12:12:17;;;;;;;5.05;1.33;;;3.60;99.90;;;;;;4940233;28;20051;-69
2022/01/25 12:14:44;;;;;;;3.05;0.82;;;3.60;99.90;;;;;;4939697;28;20474;-71
2022/01/25 12:17:16;;;;;;;2.65;1.13;;;3.70;99.90;;;;;;4940071;28;20466;-71
2022/01/25 12:19:53;;;;;;;4.97;1.33;;;3.70;99.90;;;;;;4938561;28;20063;-69
2022/01/25 12:22:27;;;;;;;5.28;1.30;;;3.60;99.90;;;;;;4937749;28;20617;-65
2022/01/25 12:27:51;;;;;;;5.18;1.48;;;3.70;99.90;;;;;;4936124;28;20051;-70
2022/01/25 12:30:44;;;;;;;7.35;2.42;;;3.70;99.90;;;;;;4940234;28;20081;-69
2022/01/25 12:33:22;;;;;;;5.60;1.77;;;3.60;99.90;;;;;;4939368;28;20430;-65
2022/01/25 12:36:11;;;;;;;6.50;1.65;;;3.60;99.90;;;;;;4937920;28;20083;-68
2022/01/25 12:38:46;;;;;;;5.13;1.17;;;3.50;99.90;;;;;;4936885;28;20082;-67
2022/01/25 12:41:24;;;;;;;2.83;1.38;;;3.50;99.90;;;;;;4938628;28;20497;-72
2022/01/25 12:43:59;;;;;;;11.57;1.88;;;3.50;99.90;;;;;;4935743;28;20167;-70
2022/01/25 12:46:28;;;;;;;6.13;1.15;;;3.50;99.90;;;;;;4938081;28;20077;-67
2022/01/25 12:48:58;;;;;;;3.20;1.38;;;3.50;99.90;;;;;;4936700;28;20055;-70
2022/01/25 12:51:27;;;;;;;5.63;1.13;;;3.50;99.90;;;;;;4937876;28;20553;-71
2022/01/25 12:53:56;;;;;;;2.88;1.38;;;3.50;99.90;;;;;;4937059;28;20056;-69
2022/01/25 12:56:25;;;;;;;5.45;1.95;;;3.50;99.90;;;;;;4936592;28;20802;-72
2022/01/25 12:58:57;;;;;;;3.38;1.10;;;3.40;99.90;;;;;;4936728;28;20138;-68
2022/01/25 13:01:26;;;;;;;1.83;1.38;;;3.40;99.90;;;;;;4938014;28;20074;-69
2022/01/25 13:03:58;;;;;;;2.72;1.35;;;3.40;99.90;;;;;;4935715;28;20062;-68
2022/01/25 13:06:38;;;;;;;6.60;1.33;;;3.40;99.90;;;;;;4938259;28;20074;-68
2022/01/25 13:09:18;;;;;;;1.90;1.10;;;3.40;99.90;;;;;;4937783;28;20079;-67
2022/01/25 13:17:14;;;;;;;5.28;1.35;;;3.40;99.90;;;;;;4937436;28;20047;-67
2022/01/25 13:19:46;;;;;;;4.43;1.75;;;3.30;99.90;;;;;;4935240;28;20680;-65
2022/01/25 13:22:20;;;;;;;2.55;1.15;;;3.30;99.90;;;;;;4933607;28;20063;-75
2022/01/25 13:25:11;;;;;;;3.75;1.00;;;3.30;99.90;;;;;;4936844;28;20063;-70
2022/01/25 13:27:57;;;;;;;4.80;1.20;;;3.30;99.90;;;;;;4933939;28;20880;-71
2022/01/25 13:30:41;;;;;;;4.07;1.00;;;3.30;99.90;;;;;;4937960;28;20197;-68
2022/01/25 13:33:20;;;;;;;3.28;0.77;;;3.30;99.90;;;;;;4936757;28;20136;-71
2022/01/25 13:35:52;;;;;;;3.97;1.52;;;3.20;99.90;;;;;;4935883;28;20051;-68
2022/01/25 13:38:25;;;;;;;3.47;0.85;;;3.20;99.90;;;;;;4938072;28;20058;-64
2022/01/25 13:46:33;;;;;;;1.27;0.60;;;3.10;99.90;;;;;;4936065;28;20052;-70
2022/01/25 13:49:15;;;;;;;4.10;1.38;;;3.10;99.90;;;;;;4937648;28;20102;-76
2022/01/25 13:51:45;;;;;;;4.80;0.93;;;3.00;99.90;;;;;;4933724;28;20055;-65
2022/01/25 13:54:23;;;;;;;9.30;2.55;;;3.00;99.90;;;;;;4936435;28;20083;-67
2022/01/25 13:56:51;;;;;;;6.15;1.98;;;3.00;99.90;;;;;;4935847;28;20059;-71
2022/01/25 13:59:21;;;;;;;6.32;1.20;;;3.00;99.90;;;;;;4936784;28;20141;-68
2022/01/25 14:01:48;;;;;;;4.38;1.55;;;3.00;99.90;;;;;;4934783;28;20065;-65
2022/01/25 14:04:26;;;;;;;2.88;0.75;;;2.90;99.90;;;;;;4936263;28;20501;-65
2022/01/25 14:06:56;;;;;;;5.22;2.30;;;2.90;99.90;;;;;;4936576;28;20062;-67
2022/01/25 14:09:29;;;;;;;5.55;2.17;;;2.80;99.90;;;;;;4935322;28;20090;-66
2022/01/25 14:25:40;;;;;;;4.85;0.82;;;2.70;99.90;;;;;;4933863;28;20421;-65
2022/01/25 14:28:14;;;;;;;4.93;1.83;;;2.70;99.90;;;;;;4937723;28;20055;-68
2022/01/25 14:30:46;;;;;;;2.55;1.38;;;2.70;99.90;;;;;;4937302;28;21072;-68
2022/01/25 14:33:16;;;;;;;1.92;1.10;;;2.70;99.90;;;;;;4935813;28;20606;-68
2022/01/25 14:36:00;;;;;;;4.07;1.17;;;2.60;99.90;;;;;;4933681;28;20717;-71
2022/01/25 14:38:39;;;;;;;3.03;1.25;;;2.60;99.90;;;;;;4936001;28;20131;-69
2022/01/25 14:41:17;;;;;;;3.22;0.90;;;2.60;99.90;;;;;;4936639;28;20130;-78
2022/01/25 14:43:51;;;;;;;2.78;1.25;;;2.60;99.90;;;;;;4934451;28;22339;-65
2022/01/25 14:46:27;;;;;;;4.97;0.70;;;2.60;99.90;;;;;;4936776;28;20094;-66
2022/01/25 14:48:56;;;;;;;5.90;1.30;;;2.50;99.90;;;;;;4937606;28;20159;-73
2022/01/25 14:51:33;;;;;;;3.03;0.80;;;2.50;99.90;;;;;;4936962;28;20648;-71
2022/01/25 14:54:01;;;;;;;5.07;1.67;;;2.50;99.90;;;;;;4939208;28;20453;-64
2022/01/25 14:56:33;;;;;;;6.40;1.15;;;2.40;99.90;;;;;;4941764;28;20792;-73
2022/01/25 15:01:58;;;;;;;3.65;0.65;;;2.40;99.90;;;;;;4938487;28;20062;-68
2022/01/25 15:04:31;;;;;;;4.05;1.63;;;2.30;99.90;;;;;;4940620;28;20600;-67
2022/01/25 15:06:58;;;;;;;4.20;1.95;;;2.30;99.90;;;;;;4939772;28;20055;-67
2022/01/25 15:09:25;;;;;;;7.72;1.08;;;2.30;99.90;;;;;;4937006;28;20062;-71
2022/01/25 15:11:53;;;;;;;7.25;1.55;;;2.30;99.90;;;;;;4939729;28;20055;-68
2022/01/25 15:14:22;;;;;;;3.08;1.05;;;2.20;99.90;;;;;;4938499;28;20486;-71
2022/01/25 15:16:50;;;;;;;13.23;2.63;;;2.20;99.90;;;;;;4938954;28;20052;-68
2022/01/25 15:19:20;;;;;;;6.30;1.63;;;2.10;99.90;;;;;;4938084;28;20051;-67
2022/01/25 15:21:49;;;;;;;5.15;1.15;;;2.10;99.90;;;;;;4937237;28;20056;-67
2022/01/25 15:24:19;;;;;;;7.00;1.77;;;2.10;99.90;;;;;;4939678;28;20134;-70
2022/01/25 15:26:52;;;;;;;5.18;1.58;;;2.10;99.90;;;;;;4940881;28;20083;-66
2022/01/25 15:29:23;;;;;;;2.95;0.82;;;2.10;99.90;;;;;;4938950;28;20066;-71
2022/01/25 15:31:54;;;;;;;6.25;1.33;;;2.10;99.90;;;;;;4937622;28;20150;-68
2022/01/25 15:34:21;;;;;;;4.35;0.88;;;2.10;99.90;;;;;;4939288;28;20074;-68